Time;durP1;ratioP1;P1;durP2;ratioP2;P2;SDS_P1;SDS_P2;PMS_P1;PMS_P2;Temp;Humidity;BMP_temperature;BMP_pressure;BME280_temperature;BME280_humidity;BME280_pressure;Samples;Min_cycle;Max_cycle;Signal;HPM_P1;HPM_P2
2021/12/13 00:01:32;;;;;;;2.25;0.85;;;;;;;;;;5073010;28;20046;-71
2021/12/13 00:04:07;;;;;;;2.67;0.60;;;;;;;;;;5090698;28;20067;-70
2021/12/13 00:06:37;;;;;;;1.27;0.88;;;;;;;;;;5090403;28;20044;-71
2021/12/13 00:09:06;;;;;;;1.60;0.88;;;;;;;;;;5090585;28;20189;-71
2021/12/13 00:11:33;;;;;;;1.38;0.80;;;;;;;;;;5089156;28;20044;-71
2021/12/13 00:14:22;;;;;;;2.03;1.20;;;;;;;;;;5089580;28;20048;-71
2021/12/13 00:16:50;;;;;;;1.90;0.60;;;;;;;;;;5084734;28;20131;-71
2021/12/13 00:19:32;;;;;;;1.37;0.80;;;;;;;;;;5089678;28;20044;-71
2021/12/13 00:22:02;;;;;;;2.15;1.05;;;;;;;;;;5072351;28;20059;-71
2021/12/13 00:24:30;;;;;;;1.42;0.60;;;;;;;;;;5089328;28;20405;-70
2021/12/13 00:27:10;;;;;;;1.88;0.80;;;;;;;;;;5089173;28;20048;-69
2021/12/13 00:29:56;;;;;;;3.30;0.85;;;;;;;;;;5088560;28;20040;-73
2021/12/13 00:32:32;;;;;;;1.67;0.75;;;;;;;;;;5090169;28;20093;-72
2021/12/13 00:35:00;;;;;;;1.58;0.82;;;;;;;;;;5090038;28;20071;-70
2021/12/13 00:37:35;;;;;;;1.55;0.70;;;;;;;;;;5072734;28;20386;-70
2021/12/13 00:40:01;;;;;;;1.50;0.80;;;;;;;;;;5064245;28;20059;-69
2021/12/13 00:42:29;;;;;;;3.90;0.80;;;;;;;;;;5090455;28;20044;-69
2021/12/13 00:45:01;;;;;;;1.57;0.90;;;;;;;;;;5090202;28;20044;-70
2021/12/13 00:47:31;;;;;;;11.63;1.15;;;;;;;;;;5089866;28;20054;-72
2021/12/13 00:50:01;;;;;;;4.68;1.00;;;;;;;;;;5070485;28;20043;-71
2021/12/13 00:52:27;;;;;;;3.55;0.70;;;;;;;;;;5088742;28;20066;-71
2021/12/13 00:54:54;;;;;;;2.15;0.60;;;;;;;;;;5088498;28;20079;-71
2021/12/13 00:57:39;;;;;;;1.65;0.70;;;;;;;;;;5089825;28;20044;-70
2021/12/13 01:00:17;;;;;;;2.75;0.82;;;;;;;;;;5089066;28;20040;-69
2021/12/13 01:02:54;;;;;;;2.38;0.90;;;;;;;;;;5088801;28;20138;-70
2021/12/13 01:05:20;;;;;;;1.67;0.90;;;;;;;;;;5089598;28;20101;-70
2021/12/13 01:08:18;;;;;;;1.73;0.85;;;;;;;;;;5088486;28;20044;-70
2021/12/13 01:10:54;;;;;;;1.80;0.70;;;;;;;;;;5065855;28;20052;-70
2021/12/13 01:13:23;;;;;;;1.25;0.68;;;;;;;;;;5087655;28;20051;-69
2021/12/13 01:15:56;;;;;;;1.77;0.80;;;;;;;;;;5071272;28;20687;-70
2021/12/13 01:18:31;;;;;;;2.15;0.93;;;;;;;;;;5087374;28;20518;-70
2021/12/13 01:21:14;;;;;;;1.58;0.80;;;;;;;;;;5070648;28;20084;-70
2021/12/13 01:23:47;;;;;;;1.80;0.70;;;;;;;;;;5070642;28;20066;-69
2021/12/13 01:28:50;;;;;;;2.28;0.70;;;;;;;;;;5088631;28;20569;-71
2021/12/13 01:31:18;;;;;;;2.38;0.82;;;;;;;;;;5070851;28;20126;-71
2021/12/13 01:33:46;;;;;;;2.42;0.93;;;;;;;;;;5087688;28;20054;-70
2021/12/13 01:36:17;;;;;;;2.20;0.90;;;;;;;;;;5088646;28;20549;-70
2021/12/13 01:38:45;;;;;;;2.33;0.80;;;;;;;;;;5087879;28;20051;-71
2021/12/13 01:41:13;;;;;;;2.03;0.90;;;;;;;;;;5089099;28;20058;-71
2021/12/13 01:43:48;;;;;;;2.17;0.90;;;;;;;;;;5087963;28;20040;-71
2021/12/13 01:46:15;;;;;;;1.48;0.88;;;;;;;;;;5087690;28;20040;-71
2021/12/13 01:48:44;;;;;;;2.08;0.60;;;;;;;;;;5088000;28;20040;-71
2021/12/13 01:51:13;;;;;;;1.63;0.90;;;;;;;;;;5088748;28;20051;-71
2021/12/13 01:53:42;;;;;;;1.80;0.65;;;;;;;;;;5088469;28;20040;-71
2021/12/13 01:59:05;;;;;;;0.95;0.60;;;;;;;;;;5088492;28;20063;-71
2021/12/13 02:01:31;;;;;;;2.17;0.95;;;;;;;;;;5088524;28;20086;-71
2021/12/13 02:04:06;;;;;;;3.08;1.25;;;;;;;;;;5088387;28;20047;-71
2021/12/13 02:06:41;;;;;;;2.33;0.57;;;;;;;;;;5088195;28;20055;-71
2021/12/13 02:09:14;;;;;;;1.63;0.50;;;;;;;;;;5089681;28;20878;-71
2021/12/13 02:11:41;;;;;;;1.85;1.02;;;;;;;;;;5092303;28;20395;-70
2021/12/13 02:14:15;;;;;;;1.45;0.60;;;;;;;;;;5091241;28;20574;-71
2021/12/13 02:19:38;;;;;;;1.88;0.85;;;;;;;;;;5090870;28;20055;-71
2021/12/13 02:22:22;;;;;;;1.90;0.85;;;;;;;;;;5092427;28;20112;-71
2021/12/13 02:24:49;;;;;;;1.20;0.70;;;;;;;;;;5092128;28;20048;-71
2021/12/13 02:27:20;;;;;;;0.93;0.50;;;;;;;;;;5091495;28;20052;-71
2021/12/13 02:29:47;;;;;;;1.35;0.68;;;;;;;;;;5091022;28;20044;-71
2021/12/13 02:32:13;;;;;;;1.23;0.75;;;;;;;;;;5091560;28;20143;-71
2021/12/13 02:34:42;;;;;;;1.85;0.80;;;;;;;;;;5091921;28;20052;-71
2021/12/13 02:37:09;;;;;;;1.13;0.70;;;;;;;;;;5092255;28;20467;-71
2021/12/13 02:39:46;;;;;;;1.40;0.65;;;;;;;;;;5092026;28;20502;-70
2021/12/13 02:42:13;;;;;;;2.13;0.95;;;;;;;;;;5091481;28;20036;-71
2021/12/13 02:44:42;;;;;;;5.72;0.80;;;;;;;;;;5091212;28;20465;-72
2021/12/13 02:47:30;;;;;;;2.35;0.98;;;;;;;;;;5091031;28;20044;-71
2021/12/13 02:49:56;;;;;;;4.22;1.08;;;;;;;;;;5073956;28;20397;-71
2021/12/13 02:52:23;;;;;;;3.42;1.00;;;;;;;;;;5090355;28;20496;-71
2021/12/13 02:54:51;;;;;;;2.25;0.90;;;;;;;;;;5073366;28;20448;-69
2021/12/13 02:57:20;;;;;;;3.83;0.90;;;;;;;;;;5092137;28;20062;-69
2021/12/13 02:59:49;;;;;;;1.53;0.60;;;;;;;;;;5091660;28;20456;-68
2021/12/13 03:02:19;;;;;;;2.37;1.13;;;;;;;;;;5092083;28;20645;-71
2021/12/13 03:04:46;;;;;;;2.65;0.88;;;;;;;;;;5091465;28;20050;-71
2021/12/13 03:07:14;;;;;;;2.20;0.80;;;;;;;;;;5090113;28;20044;-71
2021/12/13 03:09:42;;;;;;;1.15;0.60;;;;;;;;;;5090928;28;20091;-71
2021/12/13 03:12:11;;;;;;;0.90;0.60;;;;;;;;;;5091434;28;20052;-70
2021/12/13 03:14:40;;;;;;;1.40;0.77;;;;;;;;;;5090075;28;20532;-71
2021/12/13 03:17:14;;;;;;;1.00;0.60;;;;;;;;;;5073171;28;20059;-71
2021/12/13 03:19:43;;;;;;;2.15;0.60;;;;;;;;;;5090713;28;20432;-71
2021/12/13 03:22:21;;;;;;;3.40;0.88;;;;;;;;;;5090704;28;20396;-71
2021/12/13 03:25:08;;;;;;;0.90;0.60;;;;;;;;;;5091070;28;20083;-71
2021/12/13 03:27:53;;;;;;;1.80;0.70;;;;;;;;;;5091416;28;20073;-70
2021/12/13 03:30:25;;;;;;;6.10;1.10;;;;;;;;;;5091674;28;20048;-70
2021/12/13 03:33:00;;;;;;;1.42;0.63;;;;;;;;;;5091269;28;20055;-70
2021/12/13 03:35:30;;;;;;;3.00;1.17;;;;;;;;;;5091166;28;20549;-70
2021/12/13 03:38:02;;;;;;;1.75;0.73;;;;;;;;;;5091493;28;20048;-70
2021/12/13 03:40:29;;;;;;;2.08;1.00;;;;;;;;;;5090231;28;20051;-70
2021/12/13 03:42:56;;;;;;;1.38;0.63;;;;;;;;;;5088986;28;20040;-71
2021/12/13 03:45:25;;;;;;;1.38;0.80;;;;;;;;;;5091317;28;20421;-71
2021/12/13 03:47:55;;;;;;;1.10;0.70;;;;;;;;;;5090356;28;20451;-71
2021/12/13 03:50:23;;;;;;;2.33;0.70;;;;;;;;;;5072814;28;20051;-71
2021/12/13 03:52:51;;;;;;;1.63;0.75;;;;;;;;;;5072617;28;20058;-71
2021/12/13 03:55:19;;;;;;;1.63;0.90;;;;;;;;;;5089950;28;20052;-71
2021/12/13 03:57:47;;;;;;;2.47;0.70;;;;;;;;;;5090728;28;20044;-71
2021/12/13 04:00:15;;;;;;;1.42;0.68;;;;;;;;;;5072865;28;20044;-71
2021/12/13 04:02:41;;;;;;;2.08;0.80;;;;;;;;;;5089279;28;20589;-71
2021/12/13 04:05:10;;;;;;;3.33;0.80;;;;;;;;;;5089807;28;20044;-71
2021/12/13 04:07:38;;;;;;;2.42;0.73;;;;;;;;;;5090642;28;20130;-71
2021/12/13 04:10:07;;;;;;;2.22;0.80;;;;;;;;;;5090611;28;20052;-71
2021/12/13 04:12:42;;;;;;;1.50;0.80;;;;;;;;;;5089741;28;20139;-71
2021/12/13 04:15:19;;;;;;;4.88;0.88;;;;;;;;;;5089737;28;20044;-70
2021/12/13 04:17:59;;;;;;;9.27;1.55;;;;;;;;;;5088389;28;20050;-72
2021/12/13 04:20:27;;;;;;;4.50;0.70;;;;;;;;;;5090406;28;20470;-72
2021/12/13 04:22:55;;;;;;;3.42;0.90;;;;;;;;;;5090326;28;20044;-73
2021/12/13 04:25:27;;;;;;;1.52;0.60;;;;;;;;;;5090979;28;20720;-72
2021/12/13 04:28:00;;;;;;;2.65;1.00;;;;;;;;;;5071652;28;20521;-72
2021/12/13 04:30:29;;;;;;;2.22;0.77;;;;;;;;;;5089769;28;20409;-71
2021/12/13 04:32:57;;;;;;;2.17;0.73;;;;;;;;;;5088668;28;20043;-71
2021/12/13 04:35:24;;;;;;;2.85;0.77;;;;;;;;;;5090453;28;20036;-71
2021/12/13 04:37:53;;;;;;;2.50;1.00;;;;;;;;;;5072330;28;20052;-71
2021/12/13 04:40:24;;;;;;;8.82;0.95;;;;;;;;;;5089812;28;20505;-71
2021/12/13 04:42:54;;;;;;;3.38;0.95;;;;;;;;;;5089219;28;20044;-71
2021/12/13 04:45:23;;;;;;;4.50;0.80;;;;;;;;;;5088648;28;20043;-71
2021/12/13 04:48:08;;;;;;;4.13;0.75;;;;;;;;;;5088586;28;20036;-71
2021/12/13 04:50:53;;;;;;;3.47;0.63;;;;;;;;;;5089148;28;20044;-71
2021/12/13 04:53:20;;;;;;;1.80;0.93;;;;;;;;;;5089644;28;20505;-71
2021/12/13 04:55:48;;;;;;;3.65;0.90;;;;;;;;;;5088808;28;20039;-70
2021/12/13 04:58:15;;;;;;;1.60;0.93;;;;;;;;;;5071870;28;20086;-70
2021/12/13 05:00:44;;;;;;;2.97;1.02;;;;;;;;;;5089347;28;20411;-70
2021/12/13 05:03:12;;;;;;;1.75;0.60;;;;;;;;;;5088952;28;20046;-70
2021/12/13 05:05:39;;;;;;;2.77;1.10;;;;;;;;;;5088356;28;20048;-70
2021/12/13 05:08:07;;;;;;;1.25;0.50;;;;;;;;;;5088673;28;20282;-71
2021/12/13 05:10:33;;;;;;;2.33;0.70;;;;;;;;;;5088974;28;20052;-71
2021/12/13 05:13:11;;;;;;;2.13;0.80;;;;;;;;;;5071509;28;20048;-70
2021/12/13 05:15:40;;;;;;;2.03;0.50;;;;;;;;;;5088740;28;20464;-70
2021/12/13 05:18:09;;;;;;;1.00;0.60;;;;;;;;;;5088676;28;20048;-70
2021/12/13 05:20:38;;;;;;;2.80;0.70;;;;;;;;;;5088492;28;20040;-70
2021/12/13 05:23:18;;;;;;;1.55;0.70;;;;;;;;;;5071391;28;20051;-70
2021/12/13 05:25:52;;;;;;;3.17;0.60;;;;;;;;;;5071480;28;20048;-70
2021/12/13 05:28:20;;;;;;;2.53;0.70;;;;;;;;;;5088131;28;20080;-71
2021/12/13 05:30:51;;;;;;;2.10;0.60;;;;;;;;;;5089532;28;20190;-71
2021/12/13 05:33:18;;;;;;;2.03;0.60;;;;;;;;;;5088141;28;20414;-71
2021/12/13 05:35:47;;;;;;;3.20;0.82;;;;;;;;;;5088497;28;20075;-70
2021/12/13 05:38:31;;;;;;;1.95;0.70;;;;;;;;;;5088260;28;20048;-71
2021/12/13 05:41:00;;;;;;;1.08;0.60;;;;;;;;;;5087962;28;20055;-71
2021/12/13 05:43:26;;;;;;;1.42;0.52;;;;;;;;;;5070003;28;20101;-70
2021/12/13 05:45:57;;;;;;;1.35;0.50;;;;;;;;;;5087765;28;20464;-71
2021/12/13 05:48:26;;;;;;;1.52;0.57;;;;;;;;;;5071536;28;20036;-70
2021/12/13 05:50:57;;;;;;;1.58;0.60;;;;;;;;;;5088853;28;20051;-70
2021/12/13 05:53:23;;;;;;;1.75;0.60;;;;;;;;;;5089294;28;20051;-70
2021/12/13 05:55:52;;;;;;;1.23;0.60;;;;;;;;;;5087608;28;20498;-71
2021/12/13 05:58:30;;;;;;;1.90;0.60;;;;;;;;;;5071101;28;20043;-71
2021/12/13 06:00:57;;;;;;;1.23;0.50;;;;;;;;;;5087233;28;20048;-71
2021/12/13 06:03:30;;;;;;;1.92;0.70;;;;;;;;;;5071244;28;20094;-71
2021/12/13 06:06:04;;;;;;;2.95;0.70;;;;;;;;;;5087488;28;20044;-71
2021/12/13 06:08:32;;;;;;;1.27;0.73;;;;;;;;;;5087341;28;20040;-72
2021/12/13 06:11:04;;;;;;;0.93;0.50;;;;;;;;;;5089044;28;20056;-71
2021/12/13 06:13:36;;;;;;;5.65;1.10;;;;;;;;;;5088522;28;20040;-72
2021/12/13 06:16:03;;;;;;;1.27;0.57;;;;;;;;;;5087576;28;20052;-72
2021/12/13 06:18:49;;;;;;;2.80;0.90;;;;;;;;;;5087855;28;20075;-72
2021/12/13 06:21:28;;;;;;;5.13;0.60;;;;;;;;;;5067471;28;20087;-72
2021/12/13 06:23:54;;;;;;;2.22;0.68;;;;;;;;;;5088178;28;20048;-71
2021/12/13 06:26:26;;;;;;;2.20;0.73;;;;;;;;;;5070331;28;20048;-71
2021/12/13 06:28:57;;;;;;;2.38;0.70;;;;;;;;;;5088731;28;20036;-72
2021/12/13 06:31:24;;;;;;;2.63;0.50;;;;;;;;;;5088801;28;20089;-72
2021/12/13 06:33:58;;;;;;;1.00;0.52;;;;;;;;;;5087432;28;20048;-73
2021/12/13 06:36:32;;;;;;;3.63;0.80;;;;;;;;;;5088838;28;20047;-73
2021/12/13 06:38:59;;;;;;;4.45;0.73;;;;;;;;;;5088921;28;20055;-75
2021/12/13 06:41:27;;;;;;;1.33;0.60;;;;;;;;;;5088519;28;20040;-72
2021/12/13 06:43:56;;;;;;;1.80;0.65;;;;;;;;;;5088559;28;20475;-73
2021/12/13 06:46:25;;;;;;;1.58;0.50;;;;;;;;;;5087533;28;20427;-74
2021/12/13 06:49:02;;;;;;;1.83;0.47;;;;;;;;;;5086626;28;20055;-74
2021/12/13 06:51:44;;;;;;;1.40;0.68;;;;;;;;;;5070646;28;20052;-74
2021/12/13 06:54:13;;;;;;;1.58;0.80;;;;;;;;;;5090124;28;20665;-74
2021/12/13 06:56:40;;;;;;;1.60;0.60;;;;;;;;;;5092230;28;20052;-73
2021/12/13 06:59:07;;;;;;;1.65;0.57;;;;;;;;;;5091477;28;20467;-74
2021/12/13 07:01:35;;;;;;;2.20;0.55;;;;;;;;;;5090230;28;20044;-72
2021/12/13 07:04:07;;;;;;;1.85;0.80;;;;;;;;;;5092051;28;20097;-73
2021/12/13 07:06:33;;;;;;;5.97;0.73;;;;;;;;;;5092151;28;20105;-71
2021/12/13 07:09:05;;;;;;;2.05;0.73;;;;;;;;;;5091922;28;20143;-70
2021/12/13 07:11:40;;;;;;;2.50;0.63;;;;;;;;;;5092172;28;20510;-71
2021/12/13 07:14:09;;;;;;;1.20;0.50;;;;;;;;;;5090512;28;20044;-71
2021/12/13 07:16:39;;;;;;;1.35;0.50;;;;;;;;;;5091950;28;20040;-70
2021/12/13 07:19:18;;;;;;;1.55;0.50;;;;;;;;;;5091389;28;20055;-72
2021/12/13 07:21:44;;;;;;;;;;;;;;;;;;5090246;28;20059;-72
2021/12/13 07:24:12;;;;;;;1.80;0.70;;;;;;;;;;5091305;28;19973;-71
2021/12/13 07:26:43;;;;;;;2.35;0.70;;;;;;;;;;5090000;28;20104;-73
2021/12/13 07:29:14;;;;;;;2.78;0.43;;;;;;;;;;5090573;28;20043;-72
2021/12/13 07:31:42;;;;;;;2.20;0.80;;;;;;;;;;5090574;28;20093;-72
2021/12/13 07:34:16;;;;;;;0.85;0.43;;;;;;;;;;5090634;28;20044;-72
2021/12/13 07:36:43;;;;;;;1.75;0.50;;;;;;;;;;5090688;28;20087;-71
2021/12/13 07:39:14;;;;;;;1.27;0.60;;;;;;;;;;5089995;28;20044;-70
2021/12/13 07:41:48;;;;;;;2.00;0.60;;;;;;;;;;5088500;28;20076;-72
2021/12/13 07:44:34;;;;;;;1.25;0.50;;;;;;;;;;5072830;28;20087;-71
2021/12/13 07:47:02;;;;;;;1.73;0.50;;;;;;;;;;5090191;28;20162;-72
2021/12/13 07:49:33;;;;;;;1.15;0.50;;;;;;;;;;5072296;28;20036;-71
2021/12/13 07:52:00;;;;;;;1.63;0.43;;;;;;;;;;5090327;28;20055;-71
2021/12/13 07:54:27;;;;;;;2.75;0.65;;;;;;;;;;5090617;28;20711;-72
2021/12/13 07:56:57;;;;;;;0.68;0.40;;;;;;;;;;5088879;28;20044;-72
2021/12/13 07:59:26;;;;;;;1.30;0.50;;;;;;;;;;5088765;28;20044;-72
2021/12/13 08:01:52;;;;;;;;;;;;;;;;;;5072580;28;20104;-70
2021/12/13 08:04:23;;;;;;;0.82;0.50;;;;;;;;;;5072533;28;19920;-71
2021/12/13 08:06:58;;;;;;;3.40;0.47;;;;;;;;;;5088640;28;20040;-71
2021/12/13 08:09:26;;;;;;;1.23;0.60;;;;;;;;;;5071525;28;20070;-71
2021/12/13 08:11:59;;;;;;;1.80;0.60;;;;;;;;;;5090597;28;20072;-69
2021/12/13 08:14:30;;;;;;;0.80;0.50;;;;;;;;;;5090313;28;20131;-72
2021/12/13 08:16:56;;;;;;;0.98;0.55;;;;;;;;;;5089336;28;20048;-73
2021/12/13 08:19:27;;;;;;;3.15;0.70;;;;;;;;;;5089964;28;20445;-70
2021/12/13 08:21:58;;;;;;;3.08;0.82;;;;;;;;;;5089422;28;20044;-70
2021/12/13 08:24:29;;;;;;;3.72;1.23;;;;;;;;;;5090432;28;20040;-71
2021/12/13 08:26:58;;;;;;;4.85;1.10;;;;;;;;;;5090548;28;20165;-71
2021/12/13 08:29:31;;;;;;;3.58;0.80;;;;;;;;;;5089118;28;20044;-70
2021/12/13 08:31:58;;;;;;;4.38;0.63;;;;;;;;;;5088908;28;20365;-70
2021/12/13 08:34:26;;;;;;;2.28;0.90;;;;;;;;;;5089215;28;20050;-71
2021/12/13 08:36:52;;;;;;;2.15;0.80;;;;;;;;;;5089800;28;20051;-71
2021/12/13 08:39:27;;;;;;;1.95;0.80;;;;;;;;;;5088142;28;20052;-70
2021/12/13 08:42:00;;;;;;;2.35;0.98;;;;;;;;;;5087711;28;20048;-70
2021/12/13 08:44:31;;;;;;;2.22;0.82;;;;;;;;;;5087226;28;20052;-71
2021/12/13 08:47:01;;;;;;;1.63;0.65;;;;;;;;;;5088119;28;20073;-70
2021/12/13 08:49:27;;;;;;;2.20;0.90;;;;;;;;;;5087322;28;20093;-72
2021/12/13 08:51:56;;;;;;;3.05;0.80;;;;;;;;;;5088802;28;20048;-70
2021/12/13 08:54:32;;;;;;;1.90;0.70;;;;;;;;;;5089454;28;20047;-70
2021/12/13 08:57:00;;;;;;;1.92;0.52;;;;;;;;;;5070664;28;20044;-69
2021/12/13 08:59:27;;;;;;;3.28;0.90;;;;;;;;;;5084980;28;20044;-70
2021/12/13 09:01:57;;;;;;;2.05;0.80;;;;;;;;;;5085314;28;20047;-72
2021/12/13 09:04:29;;;;;;;1.92;0.80;;;;;;;;;;5086830;28;20131;-70
2021/12/13 09:06:57;;;;;;;2.20;0.85;;;;;;;;;;5087314;28;20036;-71
2021/12/13 09:09:24;;;;;;;3.20;1.10;;;;;;;;;;5088982;28;20460;-72
2021/12/13 09:11:56;;;;;;;1.88;1.05;;;;;;;;;;5069390;28;20056;-71
2021/12/13 09:14:31;;;;;;;1.55;0.88;;;;;;;;;;5081957;28;20044;-72
2021/12/13 09:17:07;;;;;;;2.45;0.80;;;;;;;;;;5086480;28;20052;-71
2021/12/13 09:19:52;;;;;;;3.58;1.10;;;;;;;;;;5093198;28;20052;-72
2021/12/13 09:22:32;;;;;;;1.38;0.80;;;;;;;;;;5087904;28;20608;-71
2021/12/13 09:25:18;;;;;;;1.65;0.73;;;;;;;;;;5088505;28;20040;-71
2021/12/13 09:27:44;;;;;;;3.20;0.90;;;;;;;;;;5086593;28;20040;-71
2021/12/13 09:30:46;;;;;;;1.83;0.70;;;;;;;;;;5087958;28;20051;-71
2021/12/13 09:33:18;;;;;;;2.80;0.80;;;;;;;;;;5065244;28;20406;-70
2021/12/13 09:35:49;;;;;;;1.48;1.10;;;;;;;;;;5085286;28;20051;-71
2021/12/13 09:38:21;;;;;;;1.30;0.80;;;;;;;;;;5086544;28;20040;-70
2021/12/13 09:41:06;;;;;;;1.83;0.85;;;;;;;;;;5080669;28;20117;-70
2021/12/13 09:43:35;;;;;;;1.77;0.88;;;;;;;;;;5088593;28;20050;-70
2021/12/13 09:46:02;;;;;;;1.52;0.95;;;;;;;;;;5089086;28;20059;-70
2021/12/13 09:48:32;;;;;;;2.42;0.85;;;;;;;;;;5087301;28;20048;-71
2021/12/13 09:51:06;;;;;;;2.00;1.05;;;;;;;;;;5089135;28;20048;-69
2021/12/13 09:53:34;;;;;;;2.38;1.00;;;;;;;;;;5088059;28;20562;-71
2021/12/13 09:56:01;;;;;;;2.55;0.93;;;;;;;;;;5089259;28;20040;-71
2021/12/13 09:58:45;;;;;;;2.22;1.00;;;;;;;;;;5088487;28;20048;-71
2021/12/13 10:01:16;;;;;;;1.40;0.80;;;;;;;;;;5089078;28;20040;-71
2021/12/13 10:03:45;;;;;;;2.35;1.00;;;;;;;;;;5087765;28;20063;-71
2021/12/13 10:06:12;;;;;;;2.22;1.17;;;;;;;;;;5089406;28;20131;-70
2021/12/13 10:08:44;;;;;;;2.13;0.82;;;;;;;;;;5088460;28;20072;-70
2021/12/13 10:11:28;;;;;;;2.17;1.00;;;;;;;;;;5089073;28;20413;-70
2021/12/13 10:13:55;;;;;;;3.72;1.30;;;;;;;;;;5087262;28;20087;-68
2021/12/13 10:16:23;;;;;;;3.97;1.20;;;;;;;;;;5088762;28;20052;-71
2021/12/13 10:18:52;;;;;;;1.85;1.00;;;;;;;;;;5087756;28;20317;-71
2021/12/13 10:21:21;;;;;;;1.63;0.80;;;;;;;;;;5074875;28;20052;-72
2021/12/13 10:23:51;;;;;;;2.75;1.00;;;;;;;;;;5087765;28;20289;-72
2021/12/13 10:26:19;;;;;;;2.90;1.10;;;;;;;;;;5087250;28;20048;-71
2021/12/13 10:29:05;;;;;;;2.45;0.70;;;;;;;;;;5088109;28;20044;-71
2021/12/13 10:31:32;;;;;;;3.53;1.20;;;;;;;;;;5075019;28;20243;-70
2021/12/13 10:33:59;;;;;;;1.63;0.80;;;;;;;;;;5091478;28;20052;-70
2021/12/13 10:36:28;;;;;;;2.28;1.05;;;;;;;;;;5092744;28;20043;-70
2021/12/13 10:38:56;;;;;;;3.65;1.20;;;;;;;;;;5092525;28;20044;-71
2021/12/13 10:41:28;;;;;;;2.50;1.00;;;;;;;;;;5092952;28;20087;-71
2021/12/13 10:43:58;;;;;;;3.15;1.25;;;;;;;;;;5089860;28;20051;-71
2021/12/13 10:46:32;;;;;;;4.10;1.48;;;;;;;;;;5091258;28;20409;-69
2021/12/13 10:49:02;;;;;;;8.60;1.13;;;;;;;;;;5090213;28;20349;-68
2021/12/13 10:51:40;;;;;;;4.68;1.48;;;;;;;;;;5092163;28;20044;-67
2021/12/13 10:54:09;;;;;;;4.38;1.27;;;;;;;;;;5091616;28;20055;-66
2021/12/13 10:56:38;;;;;;;7.18;1.02;;;;;;;;;;5091637;28;20055;-66
2021/12/13 10:59:07;;;;;;;2.90;0.98;;;;;;;;;;5091840;28;20063;-67
2021/12/13 11:01:34;;;;;;;5.80;1.30;;;;;;;;;;5090916;28;20044;-66
2021/12/13 11:04:02;;;;;;;3.85;1.20;;;;;;;;;;5091683;28;20047;-66
2021/12/13 11:06:29;;;;;;;4.35;1.15;;;;;;;;;;5092336;28;20051;-66
2021/12/13 11:08:55;;;;;;;7.10;1.30;;;;;;;;;;5091483;28;20429;-66
2021/12/13 11:11:24;;;;;;;4.70;1.40;;;;;;;;;;5091066;28;20127;-65
2021/12/13 11:13:52;;;;;;;4.38;1.20;;;;;;;;;;5091394;28;20047;-66
2021/12/13 11:16:23;;;;;;;3.47;1.17;;;;;;;;;;5091679;28;20277;-66
2021/12/13 11:18:49;;;;;;;4.57;1.38;;;;;;;;;;5091144;28;20105;-66
2021/12/13 11:21:21;;;;;;;3.45;1.60;;;;;;;;;;5089864;28;20136;-66
2021/12/13 11:23:48;;;;;;;3.03;1.23;;;;;;;;;;5091029;28;20062;-66
2021/12/13 11:26:16;;;;;;;3.65;1.17;;;;;;;;;;5091299;28;20603;-66
2021/12/13 11:28:42;;;;;;;2.67;1.33;;;;;;;;;;5091237;28;20067;-66
2021/12/13 11:31:10;;;;;;;3.10;1.20;;;;;;;;;;5091066;28;20040;-66
2021/12/13 11:33:41;;;;;;;4.95;1.40;;;;;;;;;;5090800;28;20583;-67
2021/12/13 11:36:10;;;;;;;3.38;1.30;;;;;;;;;;5091387;28;20451;-66
2021/12/13 11:38:55;;;;;;;2.60;1.30;;;;;;;;;;5091877;28;20048;-66
2021/12/13 11:41:34;;;;;;;3.30;1.20;;;;;;;;;;5090990;28;20513;-66
2021/12/13 11:44:20;;;;;;;3.35;1.10;;;;;;;;;;5089762;28;20058;-66
2021/12/13 11:47:05;;;;;;;3.95;1.00;;;;;;;;;;5091119;28;20275;-66
2021/12/13 11:49:41;;;;;;;2.35;1.27;;;;;;;;;;5090011;28;20066;-66
2021/12/13 11:52:22;;;;;;;2.78;1.17;;;;;;;;;;5089006;28;20064;-66
2021/12/13 11:54:48;;;;;;;4.35;1.13;;;;;;;;;;5087707;28;20079;-66
2021/12/13 11:57:33;;;;;;;4.38;1.30;;;;;;;;;;5090026;28;20090;-66
2021/12/13 12:00:15;;;;;;;13.55;1.65;;;;;;;;;;5089364;28;20032;-67
2021/12/13 12:02:47;;;;;;;2.58;1.23;;;;;;;;;;5089744;28;20040;-67
2021/12/13 12:05:19;;;;;;;4.38;1.27;;;;;;;;;;5089705;28;20491;-66
2021/12/13 12:08:04;;;;;;;6.55;1.35;;;;;;;;;;5089180;28;20056;-67
2021/12/13 12:10:44;;;;;;;3.75;1.40;;;;;;;;;;5069038;28;20056;-66
2021/12/13 12:13:26;;;;;;;7.03;1.30;;;;;;;;;;5069542;28;20553;-66
2021/12/13 12:15:55;;;;;;;5.22;1.73;;;;;;;;;;5069847;28;20371;-66
2021/12/13 12:18:21;;;;;;;3.50;1.40;;;;;;;;;;5072310;28;20048;-66
2021/12/13 12:20:53;;;;;;;2.88;1.10;;;;;;;;;;5090253;28;20134;-66
2021/12/13 12:23:28;;;;;;;8.35;1.30;;;;;;;;;;5089886;28;20497;-67
2021/12/13 12:25:57;;;;;;;3.25;1.42;;;;;;;;;;5089687;28;20123;-67
2021/12/13 12:28:23;;;;;;;2.97;0.98;;;;;;;;;;5090081;28;20040;-67
2021/12/13 12:30:52;;;;;;;4.43;1.20;;;;;;;;;;5089854;28;20458;-66
2021/12/13 12:33:38;;;;;;;7.47;1.77;;;;;;;;;;5089948;28;20044;-66
2021/12/13 12:36:07;;;;;;;2.30;1.10;;;;;;;;;;5090425;28;20105;-66
2021/12/13 12:38:52;;;;;;;4.35;1.40;;;;;;;;;;5090254;28;20097;-67
2021/12/13 12:41:44;;;;;;;4.13;1.23;;;;;;;;;;5090074;28;20048;-67
2021/12/13 12:44:15;;;;;;;2.72;1.00;;;;;;;;;;5088810;28;20048;-67
2021/12/13 12:46:42;;;;;;;2.00;0.90;;;;;;;;;;5089717;28;20091;-67
2021/12/13 12:49:17;;;;;;;2.65;1.23;;;;;;;;;;5088786;28;20128;-67
2021/12/13 12:51:43;;;;;;;3.88;1.33;;;;;;;;;;5089223;28;20079;-67
2021/12/13 12:54:18;;;;;;;4.20;1.30;;;;;;;;;;5088162;28;20052;-67
2021/12/13 12:56:49;;;;;;;2.72;1.10;;;;;;;;;;5088126;28;20047;-67
2021/12/13 12:59:31;;;;;;;7.38;1.40;;;;;;;;;;5089338;28;20051;-65
2021/12/13 13:02:05;;;;;;;4.30;1.17;;;;;;;;;;5089994;28;20105;-67
2021/12/13 13:04:33;;;;;;;2.90;1.33;;;;;;;;;;5089050;28;20048;-67
2021/12/13 13:07:06;;;;;;;3.83;1.52;;;;;;;;;;5088516;28;20036;-67
2021/12/13 13:09:38;;;;;;;10.13;1.38;;;;;;;;;;5088966;28;20414;-66
2021/12/13 13:12:05;;;;;;;12.80;1.65;;;;;;;;;;5089061;28;20529;-68
2021/12/13 13:14:32;;;;;;;21.25;1.83;;;;;;;;;;5088646;28;20131;-68
2021/12/13 13:17:07;;;;;;;5.05;1.15;;;;;;;;;;5088200;28;20052;-68
2021/12/13 13:19:35;;;;;;;4.07;1.20;;;;;;;;;;5088519;28;20040;-67
2021/12/13 13:22:04;;;;;;;4.25;1.40;;;;;;;;;;5088858;28;20059;-68
2021/12/13 13:24:30;;;;;;;5.22;1.35;;;;;;;;;;5088645;28;20058;-66
2021/12/13 13:26:56;;;;;;;5.93;1.92;;;;;;;;;;5088059;28;20496;-65
2021/12/13 13:29:23;;;;;;;5.95;1.90;;;;;;;;;;5088994;28;20054;-65
2021/12/13 13:31:53;;;;;;;8.05;1.30;;;;;;;;;;5088296;28;20043;-66
2021/12/13 13:34:39;;;;;;;5.60;1.90;;;;;;;;;;5087028;28;20135;-65
2021/12/13 13:37:05;;;;;;;7.88;1.58;;;;;;;;;;5088319;28;20105;-66
2021/12/13 13:39:34;;;;;;;3.53;1.60;;;;;;;;;;5089145;28;20333;-66
2021/12/13 13:42:06;;;;;;;6.95;1.40;;;;;;;;;;5088934;28;20101;-66
2021/12/13 13:44:38;;;;;;;12.38;1.60;;;;;;;;;;5088932;28;20070;-67
2021/12/13 13:47:09;;;;;;;9.52;1.80;;;;;;;;;;5088837;28;20131;-66
2021/12/13 13:49:36;;;;;;;4.38;1.90;;;;;;;;;;5089024;28;20043;-67
2021/12/13 13:52:25;;;;;;;5.90;2.03;;;;;;;;;;5087934;28;20044;-66
2021/12/13 13:54:53;;;;;;;3.30;1.40;;;;;;;;;;5089263;28;20047;-65
2021/12/13 13:57:21;;;;;;;5.70;1.50;;;;;;;;;;5088995;28;20600;-66
2021/12/13 13:59:51;;;;;;;7.20;1.80;;;;;;;;;;5088196;28;20383;-66
2021/12/13 14:02:19;;;;;;;;;;;;;;;;;;5089618;28;20139;-66
2021/12/13 14:04:47;;;;;;;4.20;1.30;;;;;;;;;;5091771;28;20010;-67
2021/12/13 14:07:24;;;;;;;2.70;1.27;;;;;;;;;;5093512;28;20044;-66
2021/12/13 14:09:56;;;;;;;2.33;1.27;;;;;;;;;;5092782;28;20555;-66
2021/12/13 14:12:28;;;;;;;3.88;1.40;;;;;;;;;;5093067;28;20086;-66
2021/12/13 14:15:13;;;;;;;2.55;1.60;;;;;;;;;;5092677;28;20051;-65
2021/12/13 14:17:41;;;;;;;3.47;1.55;;;;;;;;;;5092864;28;20428;-66
2021/12/13 14:20:25;;;;;;;3.97;1.45;;;;;;;;;;5092698;28;20051;-67
2021/12/13 14:22:54;;;;;;;5.25;1.63;;;;;;;;;;5093018;28;20163;-66
2021/12/13 14:25:28;;;;;;;5.13;1.67;;;;;;;;;;5093399;28;20036;-66
2021/12/13 14:27:55;;;;;;;6.05;1.60;;;;;;;;;;5092867;28;20044;-66
2021/12/13 14:30:26;;;;;;;3.35;1.63;;;;;;;;;;5092498;28;20387;-65
2021/12/13 14:32:52;;;;;;;5.93;1.45;;;;;;;;;;5092666;28;20347;-66
2021/12/13 14:35:24;;;;;;;2.67;1.38;;;;;;;;;;5093222;28;20048;-66
2021/12/13 14:37:51;;;;;;;4.03;1.42;;;;;;;;;;5091967;28;20193;-65
2021/12/13 14:40:18;;;;;;;4.97;1.58;;;;;;;;;;5092469;28;20040;-65
2021/12/13 14:42:45;;;;;;;5.72;1.40;;;;;;;;;;5092946;28;20051;-65
2021/12/13 14:45:13;;;;;;;3.10;1.30;;;;;;;;;;5092838;28;20080;-65
2021/12/13 14:47:42;;;;;;;2.78;1.50;;;;;;;;;;5092532;28;20044;-66
2021/12/13 14:50:10;;;;;;;1.97;1.10;;;;;;;;;;5092402;28;20044;-65
2021/12/13 14:52:43;;;;;;;3.70;2.13;;;;;;;;;;5091556;28;20545;-66
2021/12/13 14:55:11;;;;;;;4.97;1.70;;;;;;;;;;5090232;28;20044;-65
2021/12/13 14:57:38;;;;;;;2.40;1.30;;;;;;;;;;5092008;28;20040;-65
2021/12/13 15:00:10;;;;;;;2.53;1.35;;;;;;;;;;5089713;28;20371;-65
2021/12/13 15:02:41;;;;;;;2.50;1.30;;;;;;;;;;5083563;28;20083;-65
2021/12/13 15:05:11;;;;;;;3.53;1.25;;;;;;;;;;5077431;28;20052;-65
2021/12/13 15:07:38;;;;;;;5.50;1.75;;;;;;;;;;5091431;28;20043;-66
2021/12/13 15:10:09;;;;;;;2.30;1.13;;;;;;;;;;5091590;28;20056;-66
2021/12/13 15:12:39;;;;;;;2.63;1.33;;;;;;;;;;5071683;28;20048;-66
2021/12/13 15:15:07;;;;;;;2.00;1.50;;;;;;;;;;5082718;28;20048;-66
2021/12/13 15:17:35;;;;;;;3.33;1.40;;;;;;;;;;5091604;28;20043;-66